To NAV CANADA Home Page Login to a new session Search on AWWS site Feedback and Comments Disclaimer Vers la page française équivalente Tips FAQ What's new on the site To the Forecasts and Observations / NOTAM section To "File a Flight Plan" website Publications and other links Update of the User's profile FIC Telephone Numbers My Weather Data Folder Route Weather Data Regional Weather Data Local Weather Data To the Forecasts and Observations / NOTAM section
Request Generated 04/17/2014 at 06:41:33 UTC . Weather information available at that time is displayed.

METAR/TAF

YARMOUTH/NS    

METAR CYQI 170600Z 01008KT 15SM FEW250 M02/M06 A3062 RMK CI2 SLP370=
METAR CYQI 170500Z 02006KT 15SM FEW250 M03/M06 A3060 RMK CI2 SLP365=
METAR CYQI 170400Z 01006KT 15SM FEW250 M02/M07 A3057 RMK CI1 SLP354=

TAF CYQI 170538Z 1706/1718 01007KT P6SM SKC
BECMG 1710/1712 03010G20KT
FM171700 07010KT P6SM FEW200
RMK NXT FCST BY 171200Z=
Your time UTC time
Weather data provided by Environment Canada and NAV CANADA